createdAt,value
2022-10-19T00:00:27.859Z,13.30
2022-10-19T00:01:59.604Z,13.45
2022-10-19T00:03:31.370Z,13.44
2022-10-19T00:05:03.060Z,13.46
2022-10-19T00:06:36.348Z,13.49
2022-10-19T00:08:08.021Z,13.52
2022-10-19T00:09:39.836Z,13.59
2022-10-19T00:11:11.726Z,13.65
2022-10-19T00:12:43.430Z,13.62
2022-10-19T00:14:17.130Z,13.58
2022-10-19T00:15:48.770Z,13.64
2022-10-19T00:17:20.463Z,13.67
2022-10-19T00:18:52.120Z,13.66
2022-10-19T00:20:23.783Z,13.63
2022-10-19T00:21:56.837Z,13.64
2022-10-19T00:23:28.491Z,13.74
2022-10-19T00:25:00.145Z,13.65
2022-10-19T00:26:31.841Z,13.72
2022-10-19T00:28:03.776Z,13.71
2022-10-19T00:29:35.591Z,13.64
2022-10-19T00:31:08.735Z,13.68
2022-10-19T00:32:40.368Z,13.67
2022-10-19T00:34:12.127Z,13.70
2022-10-19T00:35:43.929Z,13.74
2022-10-19T00:37:17.085Z,13.75
2022-10-19T00:38:48.839Z,13.77
2022-10-19T00:40:20.602Z,13.74
2022-10-19T00:41:52.327Z,13.74
2022-10-19T00:43:25.010Z,13.74
2022-10-19T00:44:58.974Z,13.69
2022-10-19T00:46:31.810Z,13.76
2022-10-19T00:48:03.721Z,13.76
2022-10-19T00:49:36.860Z,13.72
2022-10-19T00:51:08.567Z,13.63
2022-10-19T00:52:41.624Z,13.67
2022-10-19T00:54:13.285Z,13.70
2022-10-19T00:55:45.083Z,13.72
2022-10-19T00:57:16.786Z,13.70
2022-10-19T00:58:48.516Z,13.78
2022-10-19T01:00:20.237Z,13.67
2022-10-19T01:01:52.066Z,13.78
2022-10-19T01:03:23.757Z,13.81
2022-10-19T01:04:55.412Z,13.80
2022-10-19T01:06:27.157Z,13.68
2022-10-19T01:08:00.209Z,13.64
2022-10-19T01:09:31.924Z,13.50
2022-10-19T01:11:14.248Z,13.65
2022-10-19T01:12:58.171Z,13.71
2022-10-19T01:14:36.245Z,13.49
2022-10-19T01:16:11.899Z,13.62
2022-10-19T01:17:49.670Z,13.67
2022-10-19T01:19:44.792Z,13.66
2022-10-19T01:21:21.781Z,13.68
2022-10-19T01:23:06.649Z,13.52
2022-10-19T01:24:48.212Z,13.60
2022-10-19T01:26:33.492Z,13.70
2022-10-19T01:28:14.150Z,13.36
2022-10-19T01:30:15.530Z,13.46
2022-10-19T01:31:48.201Z,13.52
2022-10-19T01:33:31.645Z,13.47
2022-10-19T01:35:06.264Z,13.63
2022-10-19T01:36:40.463Z,13.55
2022-10-19T01:38:17.974Z,13.33
2022-10-19T01:39:52.238Z,13.44
2022-10-19T01:41:27.764Z,13.49
2022-10-19T01:43:01.456Z,13.24
2022-10-19T01:44:37.401Z,13.24
2022-10-19T01:46:12.130Z,13.29
2022-10-19T01:47:47.240Z,13.34
2022-10-19T01:49:20.369Z,13.32
2022-10-19T01:50:54.191Z,13.45
2022-10-19T01:52:25.901Z,13.04
2022-10-19T01:53:58.561Z,13.03
2022-10-19T01:55:30.391Z,13.05
2022-10-19T01:57:02.358Z,12.88
2022-10-19T01:58:35.653Z,13.03
2022-10-19T02:00:08.531Z,13.12
2022-10-19T02:01:43.780Z,13.27
2022-10-19T02:03:15.450Z,13.23
2022-10-19T02:04:47.452Z,13.25
2022-10-19T02:06:19.168Z,13.26
2022-10-19T02:07:53.373Z,13.18
2022-10-19T02:09:25.014Z,12.79
2022-10-19T02:10:56.745Z,12.82
2022-10-19T02:12:28.779Z,12.66
2022-10-19T02:14:02.055Z,12.72
2022-10-19T02:15:34.001Z,12.92
2022-10-19T02:17:08.406Z,13.04
2022-10-19T02:18:41.267Z,12.99
2022-10-19T02:20:13.030Z,13.03
2022-10-19T02:21:44.729Z,12.94
2022-10-19T02:23:17.296Z,12.95
2022-10-19T02:24:49.022Z,12.86
2022-10-19T02:26:20.761Z,12.89
2022-10-19T02:27:52.460Z,12.80
2022-10-19T02:29:24.181Z,12.67
2022-10-19T02:30:55.855Z,12.56
2022-10-19T02:32:28.940Z,12.38
2022-10-19T02:34:00.650Z,12.65
2022-10-19T02:35:32.338Z,12.51
2022-10-19T02:37:04.274Z,12.68
2022-10-19T02:38:36.099Z,12.73
2022-10-19T02:40:08.582Z,12.70
2022-10-19T02:41:42.744Z,12.35
2022-10-19T02:43:14.875Z,12.34
2022-10-19T02:44:48.241Z,12.44
2022-10-19T02:46:22.151Z,12.67
2022-10-19T02:47:56.089Z,12.24
2022-10-19T02:49:27.766Z,12.35
2022-10-19T02:50:59.466Z,12.52
2022-10-19T02:52:31.164Z,12.10
2022-10-19T02:54:05.154Z,12.27
2022-10-19T02:55:37.256Z,12.18
2022-10-19T02:57:15.141Z,12.32
2022-10-19T02:58:46.867Z,12.41
2022-10-19T03:00:18.585Z,12.23
2022-10-19T03:01:50.495Z,12.30
2022-10-19T03:03:23.549Z,12.27
2022-10-19T03:04:55.249Z,12.43
2022-10-19T03:06:26.933Z,11.92
2022-10-19T03:07:58.611Z,11.84
2022-10-19T03:09:30.329Z,12.13
2022-10-19T03:11:02.068Z,12.25
2022-10-19T03:12:33.771Z,12.40
2022-10-19T03:14:05.456Z,12.20
2022-10-19T03:15:37.183Z,12.27
2022-10-19T03:17:08.892Z,12.14
2022-10-19T03:18:41.971Z,11.88
2022-10-19T03:20:13.724Z,12.13
2022-10-19T03:21:45.447Z,12.27
2022-10-19T03:23:17.133Z,11.82
2022-10-19T03:24:48.813Z,11.50
2022-10-19T03:26:20.643Z,11.54
2022-10-19T03:27:52.348Z,11.86
2022-10-19T03:29:24.072Z,11.61
2022-10-19T03:30:55.945Z,11.62
2022-10-19T03:32:27.645Z,11.76
2022-10-19T03:34:00.707Z,11.99
2022-10-19T03:35:32.486Z,11.71
2022-10-19T03:37:04.135Z,11.74
2022-10-19T03:38:35.797Z,11.98
2022-10-19T03:40:08.504Z,11.71
2022-10-19T03:41:40.239Z,11.76
2022-10-19T03:43:11.898Z,11.55
2022-10-19T03:44:43.545Z,11.40
2022-10-19T03:46:15.312Z,11.70
2022-10-19T03:47:49.442Z,11.59
2022-10-19T03:49:22.618Z,11.84
2022-10-19T03:50:58.860Z,11.94
2022-10-19T03:52:30.553Z,11.40
2022-10-19T03:54:03.263Z,11.44
2022-10-19T03:55:35.395Z,11.65
2022-10-19T03:57:07.146Z,11.81
2022-10-19T03:58:39.410Z,11.90
2022-10-19T04:00:12.513Z,11.86
2022-10-19T04:01:46.515Z,11.49
2022-10-19T04:03:18.216Z,11.20
2022-10-19T04:04:51.305Z,11.07
2022-10-19T04:06:24.290Z,11.07
2022-10-19T04:07:55.974Z,11.46
2022-10-19T04:09:27.696Z,11.41
2022-10-19T04:11:00.616Z,11.45
2022-10-19T04:12:32.339Z,11.55
2022-10-19T04:14:04.123Z,11.63
2022-10-19T04:15:35.817Z,11.70
2022-10-19T04:17:07.510Z,11.62
2022-10-19T04:18:39.202Z,11.34
2022-10-19T04:20:12.465Z,10.99
2022-10-19T04:21:44.881Z,11.46
2022-10-19T04:24:48.350Z,11.66
2022-10-19T04:26:20.303Z,11.57
2022-10-19T04:27:51.970Z,11.35
2022-10-19T04:29:27.896Z,11.04
2022-10-19T04:31:02.003Z,10.91
2022-10-19T04:32:33.795Z,10.82
2022-10-19T04:34:05.462Z,10.68
2022-10-19T04:35:38.463Z,10.95
2022-10-19T04:37:10.100Z,11.31
2022-10-19T04:38:41.775Z,11.36
2022-10-19T04:40:15.044Z,11.29
2022-10-19T04:41:46.939Z,11.44
2022-10-19T04:43:18.614Z,11.48
2022-10-19T04:44:50.364Z,11.53
2022-10-19T04:46:22.247Z,11.50
2022-10-19T04:47:56.456Z,11.27
2022-10-19T04:49:28.168Z,11.35
2022-10-19T04:51:01.260Z,11.31
2022-10-19T04:52:35.193Z,10.99
2022-10-19T04:54:06.948Z,10.93
2022-10-19T04:55:40.720Z,11.23
2022-10-19T04:57:12.345Z,11.21
2022-10-19T04:58:44.119Z,11.35
2022-10-19T05:00:16.423Z,11.18
2022-10-19T05:01:48.090Z,11.01
2022-10-19T05:03:19.832Z,11.21
2022-10-19T05:04:51.490Z,11.42
2022-10-19T05:06:24.551Z,10.98
2022-10-19T05:07:56.306Z,11.26
2022-10-19T05:09:27.931Z,11.22
2022-10-19T05:11:02.520Z,11.34
2022-10-19T05:12:34.713Z,10.95
2022-10-19T05:14:06.333Z,11.29
2022-10-19T05:15:37.967Z,11.17
2022-10-19T05:17:09.653Z,11.19
2022-10-19T05:18:41.398Z,11.34
2022-10-19T05:20:13.143Z,11.08
2022-10-19T05:21:46.155Z,11.20
2022-10-19T05:23:18.017Z,11.39
2022-10-19T05:24:52.223Z,11.22
2022-10-19T05:26:25.989Z,11.21
2022-10-19T05:27:57.710Z,11.31
2022-10-19T05:29:30.187Z,11.24
2022-10-19T05:31:05.806Z,11.01
2022-10-19T05:32:37.640Z,10.94
2022-10-19T05:34:09.329Z,11.31
2022-10-19T05:35:41.007Z,11.29
2022-10-19T05:37:14.097Z,11.41
2022-10-19T05:38:46.441Z,11.16
2022-10-19T05:40:18.101Z,11.23
2022-10-19T05:41:49.847Z,11.22
2022-10-19T05:43:21.502Z,11.19
2022-10-19T05:44:53.114Z,11.25
2022-10-19T05:46:24.991Z,11.20
2022-10-19T05:47:56.604Z,10.95
2022-10-19T05:49:28.367Z,11.05
2022-10-19T05:51:00.396Z,10.98
2022-10-19T05:52:33.410Z,10.91
2022-10-19T05:54:05.097Z,11.17
2022-10-19T05:55:36.766Z,11.03
2022-10-19T05:57:08.379Z,11.10
2022-10-19T05:58:39.969Z,10.85
2022-10-19T06:00:12.494Z,11.04
2022-10-19T06:01:44.163Z,11.19
2022-10-19T06:03:17.250Z,11.30
2022-10-19T06:04:48.870Z,11.46
2022-10-19T06:06:20.529Z,11.32
2022-10-19T06:07:53.515Z,11.42
2022-10-19T06:09:25.257Z,11.36
2022-10-19T06:11:04.786Z,11.45
2022-10-19T06:12:36.406Z,11.40
2022-10-19T06:14:09.586Z,11.52
2022-10-19T06:15:41.204Z,11.50
2022-10-19T06:17:12.806Z,11.45
2022-10-19T06:18:44.499Z,11.63
2022-10-19T06:20:16.362Z,11.71
2022-10-19T06:21:47.969Z,11.66
2022-10-19T06:23:20.973Z,11.63
2022-10-19T06:24:52.571Z,11.64
2022-10-19T06:26:26.573Z,11.71
2022-10-19T06:27:58.318Z,11.68
2022-10-19T06:29:30.159Z,11.71
2022-10-19T06:31:02.381Z,11.87
2022-10-19T06:32:35.079Z,11.83
2022-10-19T06:34:07.140Z,11.77
2022-10-19T06:35:38.987Z,11.71
2022-10-19T06:37:10.663Z,11.73
2022-10-19T06:38:43.769Z,11.88
2022-10-19T06:40:15.600Z,11.79
2022-10-19T06:41:47.331Z,11.69
2022-10-19T06:43:19.008Z,11.70
2022-10-19T06:44:50.711Z,11.80
2022-10-19T06:46:23.943Z,11.78
2022-10-19T06:47:58.550Z,11.84
2022-10-19T06:49:30.943Z,11.81
2022-10-19T06:51:06.191Z,11.81
2022-10-19T06:52:39.599Z,11.80
2022-10-19T06:54:12.625Z,11.83
2022-10-19T06:55:44.227Z,11.95
2022-10-19T06:57:15.900Z,12.06
2022-10-19T06:58:47.741Z,12.02
2022-10-19T07:00:19.550Z,12.01
2022-10-19T07:01:51.173Z,11.99
2022-10-19T07:03:22.976Z,12.03
2022-10-19T07:04:54.718Z,12.07
2022-10-19T07:06:27.025Z,12.14
2022-10-19T07:07:58.740Z,12.07
2022-10-19T07:09:31.886Z,12.02
2022-10-19T07:11:05.144Z,12.01
2022-10-19T07:12:36.838Z,12.02
2022-10-19T07:14:09.056Z,12.08
2022-10-19T07:15:40.776Z,12.14
2022-10-19T07:17:12.487Z,11.98
2022-10-19T07:18:44.192Z,12.00
2022-10-19T07:20:16.099Z,11.95
2022-10-19T07:21:50.578Z,12.01
2022-10-19T07:23:22.367Z,12.07
2022-10-19T07:24:55.461Z,12.17
2022-10-19T07:26:28.327Z,12.20
2022-10-19T07:28:00.101Z,12.18
2022-10-19T07:29:31.869Z,12.20
2022-10-19T07:31:07.406Z,12.18
2022-10-19T07:32:39.616Z,12.23
2022-10-19T07:34:13.853Z,12.26
2022-10-19T07:35:45.866Z,12.33
2022-10-19T07:37:17.531Z,12.37
2022-10-19T07:38:49.175Z,12.33
2022-10-19T07:40:22.356Z,12.37
2022-10-19T07:41:54.026Z,12.34
2022-10-19T07:43:29.087Z,12.39
2022-10-19T07:45:01.156Z,12.42
2022-10-19T07:46:37.177Z,12.46
2022-10-19T07:48:09.454Z,12.53
2022-10-19T07:49:41.710Z,12.57
2022-10-19T07:51:14.020Z,12.59
2022-10-19T07:52:45.700Z,12.78
2022-10-19T07:54:17.315Z,12.71
2022-10-19T07:55:50.656Z,12.67
2022-10-19T07:57:24.864Z,12.71
2022-10-19T07:58:57.116Z,12.78
2022-10-19T08:00:29.691Z,12.87
2022-10-19T08:02:04.556Z,12.95
2022-10-19T08:04:31.656Z,12.94
2022-10-19T08:05:28.547Z,13.01
2022-10-19T08:07:00.216Z,13.01
2022-10-19T08:08:31.928Z,13.04
2022-10-19T08:10:04.392Z,13.06
2022-10-19T08:11:37.531Z,13.12
2022-10-19T08:13:09.441Z,13.13
2022-10-19T08:14:41.312Z,13.10
2022-10-19T08:16:21.553Z,13.11
2022-10-19T08:17:53.247Z,13.08
2022-10-19T08:19:25.133Z,13.12
2022-10-19T08:21:00.695Z,13.17
2022-10-19T08:22:32.582Z,13.20
2022-10-19T08:24:04.750Z,13.17
2022-10-19T08:25:37.329Z,13.24
2022-10-19T08:27:10.479Z,13.26
2022-10-19T08:28:42.128Z,13.24
2022-10-19T08:30:13.849Z,13.19
2022-10-19T08:31:46.215Z,13.18
2022-10-19T08:33:17.959Z,13.27
2022-10-19T08:34:50.700Z,13.27
2022-10-19T08:36:22.432Z,13.28
2022-10-19T08:37:54.457Z,13.40
2022-10-19T08:39:26.286Z,13.51
2022-10-19T08:40:58.185Z,13.49
2022-10-19T08:42:33.071Z,13.61
2022-10-19T08:44:17.360Z,13.69
2022-10-19T08:45:50.894Z,13.70
2022-10-19T08:47:28.325Z,13.84
2022-10-19T08:49:00.481Z,13.90
2022-10-19T08:50:35.181Z,13.94
2022-10-19T08:52:10.613Z,14.03
2022-10-19T08:53:46.019Z,14.14
2022-10-19T08:55:20.702Z,14.06
2022-10-19T08:56:56.877Z,14.09
2022-10-19T08:58:36.374Z,14.19
2022-10-19T09:00:11.203Z,14.19
2022-10-19T09:01:44.017Z,14.18
2022-10-19T09:03:27.151Z,14.37
2022-10-19T09:05:15.172Z,14.57
2022-10-19T09:06:52.605Z,14.60
2022-10-19T09:08:24.243Z,14.62
2022-10-19T09:09:57.327Z,14.56
2022-10-19T09:11:29.630Z,14.61
2022-10-19T09:13:01.874Z,14.67
2022-10-19T09:14:36.479Z,14.78
2022-10-19T09:16:09.689Z,15.05
2022-10-19T09:17:41.297Z,15.22
2022-10-19T09:19:15.114Z,15.32
2022-10-19T09:20:48.099Z,15.11
2022-10-19T09:22:20.727Z,15.23
2022-10-19T09:23:55.295Z,15.29
2022-10-19T09:25:26.896Z,15.22
2022-10-19T09:27:00.097Z,15.39
2022-10-19T09:28:41.356Z,15.58
2022-10-19T09:30:18.099Z,15.48
2022-10-19T09:31:49.666Z,15.75
2022-10-19T09:33:23.767Z,15.77
2022-10-19T09:34:56.815Z,15.47
2022-10-19T09:36:50.155Z,15.43
2022-10-19T09:38:22.316Z,15.28
2022-10-19T09:39:55.492Z,15.33
2022-10-19T09:41:27.572Z,15.49
2022-10-19T09:43:02.935Z,15.54
2022-10-19T09:44:34.560Z,15.56
2022-10-19T09:46:18.759Z,15.51
2022-10-19T09:47:51.488Z,15.50
2022-10-19T09:49:38.792Z,15.48
2022-10-19T09:51:12.047Z,15.46
2022-10-19T09:52:43.856Z,15.49
2022-10-19T09:54:26.497Z,15.68
2022-10-19T09:55:59.976Z,15.93
2022-10-19T09:57:31.875Z,16.08
2022-10-19T09:59:04.974Z,16.09
2022-10-19T10:00:38.309Z,15.78
2022-10-19T10:02:16.939Z,15.70
2022-10-19T10:03:50.103Z,15.75
2022-10-19T10:05:30.486Z,15.84
2022-10-19T10:07:02.101Z,15.93
2022-10-19T10:08:34.673Z,16.16
2022-10-19T10:10:11.291Z,16.14
2022-10-19T10:11:43.505Z,15.92
2022-10-19T10:13:16.881Z,15.92
2022-10-19T10:14:48.526Z,16.04
2022-10-19T10:16:20.969Z,16.05
2022-10-19T10:17:54.063Z,15.97
2022-10-19T10:19:27.370Z,15.93
2022-10-19T10:21:01.336Z,15.94
2022-10-19T10:22:34.273Z,15.90
2022-10-19T10:24:07.160Z,16.04
2022-10-19T10:25:38.723Z,16.14
2022-10-19T10:27:17.542Z,16.03
2022-10-19T10:28:49.955Z,15.91
2022-10-19T10:30:21.607Z,15.94
2022-10-19T10:31:54.166Z,15.95
2022-10-19T10:33:40.671Z,16.16
2022-10-19T10:35:17.420Z,16.12
2022-10-19T10:36:50.475Z,16.07
2022-10-19T10:38:24.012Z,16.02
2022-10-19T10:39:58.992Z,15.99
2022-10-19T10:41:37.408Z,15.97
2022-10-19T10:43:09.693Z,15.92
2022-10-19T10:44:45.084Z,16.03
2022-10-19T10:46:19.568Z,16.25
2022-10-19T10:47:51.374Z,16.26
2022-10-19T10:49:25.188Z,16.22
2022-10-19T10:50:57.040Z,16.28
2022-10-19T10:52:29.309Z,16.23
2022-10-19T10:54:10.371Z,16.26
2022-10-19T10:55:41.968Z,16.33
2022-10-19T10:57:15.635Z,16.22
2022-10-19T10:58:50.577Z,16.18
2022-10-19T11:00:23.964Z,16.15
2022-10-19T11:02:00.175Z,16.10
2022-10-19T11:03:33.938Z,15.98
2022-10-19T11:05:11.835Z,15.94
2022-10-19T11:06:45.979Z,15.99
2022-10-19T11:08:21.301Z,16.01
2022-10-19T11:09:54.021Z,15.92
2022-10-19T11:11:30.397Z,15.86
2022-10-19T11:13:05.485Z,15.85
2022-10-19T11:14:44.074Z,16.05
2022-10-19T11:16:17.156Z,16.43
2022-10-19T11:17:54.632Z,16.41
2022-10-19T11:19:27.458Z,16.55
2022-10-19T11:21:05.846Z,16.62
2022-10-19T11:22:40.378Z,16.61
2022-10-19T11:24:15.253Z,16.70
2022-10-19T11:25:54.369Z,16.68
2022-10-19T11:27:32.159Z,16.72
2022-10-19T11:29:16.106Z,16.98
2022-10-19T11:30:55.580Z,16.90
2022-10-19T11:32:42.236Z,17.05
2022-10-19T11:34:25.247Z,17.37
2022-10-19T11:35:58.286Z,17.53
2022-10-19T11:37:34.123Z,17.54
2022-10-19T11:39:18.734Z,17.52
2022-10-19T11:41:36.137Z,17.33
2022-10-19T11:44:23.863Z,17.62
2022-10-19T11:46:27.019Z,17.26
2022-10-19T11:48:31.058Z,17.15
2022-10-19T11:51:46.518Z,18.00
2022-10-19T11:53:24.102Z,18.24
2022-10-19T11:55:00.160Z,17.92
2022-10-19T11:56:58.273Z,17.88
2022-10-19T11:58:35.254Z,18.09
2022-10-19T12:00:15.339Z,17.98
2022-10-19T12:01:56.684Z,18.40
2022-10-19T12:03:50.004Z,18.21
2022-10-19T12:05:24.721Z,18.05
2022-10-19T12:07:01.201Z,18.14
2022-10-19T12:08:44.779Z,18.13
2022-10-19T12:10:20.906Z,18.22
2022-10-19T12:12:02.614Z,18.44
2022-10-19T12:13:42.993Z,18.42
2022-10-19T12:15:19.666Z,18.40
2022-10-19T12:16:53.354Z,18.46
2022-10-19T12:18:29.719Z,18.28
2022-10-19T12:20:02.691Z,18.27
2022-10-19T12:21:35.575Z,18.44
2022-10-19T12:23:21.923Z,18.90
2022-10-19T12:24:55.441Z,18.62
2022-10-19T12:26:27.843Z,18.38
2022-10-19T12:27:59.572Z,18.53
2022-10-19T12:29:32.456Z,18.76
2022-10-19T12:31:04.632Z,18.94
2022-10-19T12:32:42.001Z,18.92
2022-10-19T12:34:20.659Z,19.04
2022-10-19T12:36:10.950Z,18.76
2022-10-19T12:37:44.532Z,19.12
2022-10-19T12:39:19.053Z,19.09
2022-10-19T12:40:55.248Z,19.91
2022-10-19T12:42:29.277Z,19.68
2022-10-19T12:44:08.662Z,19.25
2022-10-19T12:45:41.216Z,19.04
2022-10-19T12:47:15.637Z,19.51
2022-10-19T12:48:47.769Z,19.33
2022-10-19T12:50:38.506Z,19.18
2022-10-19T12:52:10.270Z,20.13
2022-10-19T12:53:43.119Z,19.52
2022-10-19T12:55:26.319Z,19.84
2022-10-19T12:57:00.586Z,19.77
2022-10-19T12:58:34.766Z,19.97
2022-10-19T13:00:18.566Z,19.95
2022-10-19T13:01:50.181Z,19.41
2022-10-19T13:03:25.060Z,19.80
2022-10-19T13:04:59.306Z,19.66
2022-10-19T13:06:32.477Z,19.82
2022-10-19T13:08:06.128Z,20.41
2022-10-19T13:09:41.853Z,19.74
2022-10-19T13:11:17.151Z,19.86
2022-10-19T13:12:50.228Z,19.88
2022-10-19T13:14:44.044Z,19.70
2022-10-19T13:17:01.388Z,19.96
2022-10-19T13:19:17.617Z,20.10
2022-10-19T13:20:51.595Z,20.31
2022-10-19T13:22:27.792Z,19.35
2022-10-19T13:24:02.218Z,19.93
2022-10-19T13:25:34.686Z,20.02
2022-10-19T13:27:28.343Z,19.24
2022-10-19T13:29:01.508Z,19.75
2022-10-19T13:31:08.233Z,19.97
2022-10-19T13:32:45.681Z,19.54
2022-10-19T13:34:17.504Z,19.81
2022-10-19T13:35:49.173Z,20.47
2022-10-19T13:37:20.815Z,19.77
2022-10-19T13:39:07.927Z,19.45
2022-10-19T13:40:41.462Z,19.69
2022-10-19T13:42:23.017Z,19.71
2022-10-19T13:44:03.204Z,20.14
2022-10-19T13:45:34.844Z,19.84
2022-10-19T13:47:33.518Z,20.40
2022-10-19T13:49:32.607Z,20.36
2022-10-19T13:51:06.657Z,19.12
2022-10-19T13:53:16.197Z,19.08
2022-10-19T13:55:04.676Z,18.75
2022-10-19T13:56:41.508Z,19.19
2022-10-19T13:58:48.558Z,19.19
2022-10-19T14:00:21.740Z,18.86
2022-10-19T14:02:00.955Z,18.99
2022-10-19T14:03:40.905Z,19.33
2022-10-19T14:05:23.792Z,19.47
2022-10-19T14:06:56.491Z,19.25
2022-10-19T14:08:39.024Z,19.22
2022-10-19T14:10:14.218Z,19.53
2022-10-19T14:11:47.046Z,19.38
2022-10-19T14:13:22.208Z,20.07
2022-10-19T14:14:54.043Z,19.48
2022-10-19T14:16:27.195Z,19.11
2022-10-19T14:18:02.380Z,19.83
2022-10-19T14:19:41.902Z,19.57
2022-10-19T14:21:13.581Z,19.57
2022-10-19T14:22:45.284Z,19.08
2022-10-19T14:24:21.263Z,18.69
2022-10-19T14:25:54.097Z,18.52
2022-10-19T14:27:25.759Z,18.32
2022-10-19T14:28:59.050Z,18.35
2022-10-19T14:30:32.331Z,18.20
2022-10-19T14:32:05.480Z,18.51
2022-10-19T14:33:39.548Z,18.23
2022-10-19T14:35:19.268Z,17.97
2022-10-19T14:36:50.935Z,18.49
2022-10-19T14:38:25.874Z,18.24
2022-10-19T14:39:59.346Z,18.54
2022-10-19T14:41:32.655Z,18.23
2022-10-19T14:43:18.859Z,18.48
2022-10-19T14:44:50.490Z,18.15
2022-10-19T14:46:24.860Z,17.77
2022-10-19T14:48:02.137Z,17.96
2022-10-19T14:49:33.823Z,17.94
2022-10-19T14:51:06.158Z,18.25
2022-10-19T14:52:37.948Z,17.94
2022-10-19T14:54:12.044Z,17.63
2022-10-19T14:55:43.808Z,17.62
2022-10-19T14:57:16.817Z,17.84
2022-10-19T14:58:49.676Z,17.76
2022-10-19T15:00:22.167Z,17.47
2022-10-19T15:01:54.891Z,17.39
2022-10-19T15:03:28.613Z,17.41
2022-10-19T15:05:00.950Z,17.41
2022-10-19T15:06:35.691Z,17.52
2022-10-19T15:08:08.244Z,17.53
2022-10-19T15:09:47.695Z,17.35
2022-10-19T15:11:22.209Z,17.11
2022-10-19T15:12:57.710Z,17.06
2022-10-19T15:14:29.395Z,17.31
2022-10-19T15:16:01.175Z,17.16
2022-10-19T15:17:32.875Z,17.17
2022-10-19T15:19:06.685Z,17.29
2022-10-19T15:20:55.102Z,17.36
2022-10-19T15:22:40.041Z,17.21
2022-10-19T15:24:21.458Z,17.14
2022-10-19T15:25:58.872Z,16.96
2022-10-19T15:27:32.245Z,17.32
2022-10-19T15:29:07.856Z,17.05
2022-10-19T15:30:39.511Z,17.14
2022-10-19T15:32:20.721Z,17.26
2022-10-19T15:33:53.399Z,17.11
2022-10-19T15:35:28.839Z,17.12
2022-10-19T15:37:00.783Z,17.13
2022-10-19T15:38:34.662Z,17.30
2022-10-19T15:40:10.775Z,17.09
2022-10-19T15:41:42.464Z,17.20
2022-10-19T15:43:50.238Z,17.16
2022-10-19T15:45:38.299Z,16.99
2022-10-19T15:47:21.880Z,17.04
2022-10-19T15:48:55.461Z,16.97
2022-10-19T15:50:32.368Z,16.75
2022-10-19T15:52:10.745Z,16.72
2022-10-19T15:53:42.429Z,16.74
2022-10-19T15:55:53.122Z,16.67
2022-10-19T15:57:29.669Z,16.64
2022-10-19T15:59:20.085Z,16.28
2022-10-19T16:00:51.875Z,16.33
2022-10-19T16:02:25.209Z,16.40
2022-10-19T16:03:57.002Z,16.53
2022-10-19T16:05:28.881Z,16.31
2022-10-19T16:07:01.895Z,16.52
2022-10-19T16:08:33.548Z,16.36
2022-10-19T16:10:06.071Z,16.24
2022-10-19T16:11:37.735Z,16.32
2022-10-19T16:13:09.536Z,16.04
2022-10-19T16:14:41.277Z,16.08
2022-10-19T16:16:14.797Z,16.06
2022-10-19T16:17:46.557Z,16.26
2022-10-19T16:19:18.350Z,16.15
2022-10-19T16:20:49.978Z,16.14
2022-10-19T16:22:25.911Z,15.85
2022-10-19T16:24:02.359Z,15.76
2022-10-19T16:25:40.966Z,16.08
2022-10-19T16:27:16.503Z,15.64
2022-10-19T16:28:55.695Z,15.88
2022-10-19T16:30:30.589Z,15.87
2022-10-19T16:32:06.224Z,15.65
2022-10-19T16:33:39.537Z,15.92
2022-10-19T16:35:15.584Z,15.74
2022-10-19T16:36:51.052Z,15.35
2022-10-19T16:38:28.768Z,15.35
2022-10-19T16:40:03.022Z,15.14
2022-10-19T16:41:44.648Z,15.44
2022-10-19T16:43:18.470Z,15.32
2022-10-19T16:44:56.470Z,15.44
2022-10-19T16:46:29.160Z,15.20
2022-10-19T16:48:02.465Z,15.15
2022-10-19T16:49:35.611Z,15.33
2022-10-19T16:51:34.157Z,15.31
2022-10-19T16:53:13.460Z,15.55
2022-10-19T16:54:51.980Z,15.32
2022-10-19T16:56:29.959Z,14.89
2022-10-19T16:58:06.798Z,14.88
2022-10-19T16:59:49.933Z,14.97
2022-10-19T17:01:30.490Z,15.21
2022-10-19T17:03:05.581Z,14.97
2022-10-19T17:04:52.012Z,14.86
2022-10-19T17:06:27.900Z,14.87
2022-10-19T17:08:02.733Z,14.92
2022-10-19T17:09:41.893Z,15.10
2022-10-19T17:11:27.976Z,14.97
2022-10-19T17:13:10.025Z,14.98
2022-10-19T17:15:08.005Z,14.91
2022-10-19T17:16:49.917Z,14.78
2022-10-19T17:18:28.839Z,14.94
2022-10-19T17:20:07.899Z,15.07
2022-10-19T17:21:48.296Z,14.73
2022-10-19T17:23:29.590Z,14.93
2022-10-19T17:25:12.677Z,14.63
2022-10-19T17:26:53.861Z,14.85
2022-10-19T17:28:28.321Z,14.83
2022-10-19T17:30:04.135Z,14.71
2022-10-19T17:31:40.521Z,14.85
2022-10-19T17:33:14.724Z,14.88
2022-10-19T17:34:51.269Z,14.57
2022-10-19T17:36:32.841Z,14.68
2022-10-19T17:38:06.103Z,14.57
2022-10-19T17:39:44.209Z,14.69
2022-10-19T17:41:22.413Z,14.45
2022-10-19T17:43:03.850Z,14.57
2022-10-19T17:44:41.427Z,14.70
2022-10-19T17:46:18.964Z,14.76
2022-10-19T17:47:54.233Z,14.86
2022-10-19T17:49:31.217Z,14.89
2022-10-19T17:51:05.984Z,14.88
2022-10-19T17:52:40.412Z,15.01
2022-10-19T17:54:14.415Z,14.78
2022-10-19T17:55:48.078Z,14.82
2022-10-19T17:57:22.574Z,14.66
2022-10-19T17:59:01.002Z,14.66
2022-10-19T18:00:34.271Z,14.37
2022-10-19T18:02:09.832Z,14.37
2022-10-19T18:03:42.767Z,14.66
2022-10-19T18:05:18.186Z,14.56
2022-10-19T18:06:54.904Z,14.48
2022-10-19T18:08:35.591Z,14.57
2022-10-19T18:10:12.473Z,14.47
2022-10-19T18:11:49.388Z,14.58
2022-10-19T18:13:26.200Z,14.66
2022-10-19T18:15:02.025Z,14.59
2022-10-19T18:16:36.376Z,14.58
2022-10-19T18:18:10.630Z,14.69
2022-10-19T18:19:44.387Z,14.76
2022-10-19T18:21:19.626Z,14.78
2022-10-19T18:22:57.178Z,14.39
2022-10-19T18:24:35.320Z,14.66
2022-10-19T18:26:11.510Z,14.54
2022-10-19T18:27:45.854Z,14.56
2022-10-19T18:29:23.120Z,14.49
2022-10-19T18:31:06.096Z,14.57
2022-10-19T18:32:44.849Z,14.50
2022-10-19T18:34:20.736Z,14.44
2022-10-19T18:36:05.438Z,14.55
2022-10-19T19:05:43.568Z,13.86
2022-10-19T19:15:53.528Z,14.13
2022-10-19T19:25:45.084Z,14.24
2022-10-19T19:48:07.031Z,13.99
2022-10-19T19:55:38.868Z,13.90
2022-10-19T19:57:51.809Z,13.78
2022-10-19T20:02:36.574Z,13.83
2022-10-19T20:39:43.834Z,13.45
2022-10-19T20:41:17.095Z,13.49
2022-10-19T20:42:48.711Z,13.67
2022-10-19T20:44:20.373Z,13.59
2022-10-19T20:45:51.981Z,13.52
2022-10-19T20:47:23.563Z,13.73
2022-10-19T20:48:55.418Z,13.47
2022-10-19T20:50:27.513Z,13.48
2022-10-19T20:51:59.552Z,13.41
2022-10-19T20:53:34.756Z,13.38
2022-10-19T20:55:07.684Z,13.67
2022-10-19T20:56:41.000Z,13.65
2022-10-19T20:58:12.625Z,13.64
2022-10-19T20:59:45.665Z,13.81
2022-10-19T21:01:18.440Z,13.78
2022-10-19T21:02:59.561Z,13.69
2022-10-19T21:04:31.241Z,13.85
2022-10-19T21:06:04.123Z,13.83
2022-10-19T21:07:35.733Z,13.86
2022-10-19T21:09:07.469Z,13.80
2022-10-19T21:10:39.177Z,13.61
2022-10-19T21:12:12.255Z,13.74
2022-10-19T21:13:43.975Z,13.93
2022-10-19T21:15:15.895Z,13.88
2022-10-19T21:16:47.517Z,13.82
2022-10-19T21:18:19.817Z,13.68
2022-10-19T21:19:51.501Z,13.81
2022-10-19T21:21:24.890Z,13.76
2022-10-19T21:22:57.989Z,13.64
2022-10-19T21:24:32.276Z,13.55
2022-10-19T21:26:03.994Z,13.57
2022-10-19T21:27:37.268Z,13.46
2022-10-19T21:29:09.717Z,13.52
2022-10-19T21:30:41.349Z,13.42
2022-10-19T21:32:13.043Z,13.52
2022-10-19T21:33:44.867Z,13.42
2022-10-19T21:35:16.587Z,13.33
2022-10-19T21:36:48.356Z,13.48
2022-10-19T21:38:19.957Z,13.53
2022-10-19T21:39:51.571Z,13.39
2022-10-19T21:41:26.326Z,13.59
2022-10-19T21:42:59.679Z,13.64
2022-10-19T21:44:31.309Z,13.68
2022-10-19T21:46:03.097Z,13.58
2022-10-19T21:47:36.056Z,13.50
2022-10-19T21:49:08.619Z,13.48
2022-10-19T21:50:40.216Z,13.54
2022-10-19T21:52:15.939Z,13.51
2022-10-19T21:53:47.860Z,13.79
2022-10-19T21:55:19.498Z,13.68
2022-10-19T21:56:51.101Z,13.67
2022-10-19T21:58:24.076Z,13.74
2022-10-19T21:59:55.798Z,13.75
2022-10-19T22:01:28.392Z,13.77
2022-10-19T22:03:00.060Z,13.76
2022-10-19T22:04:31.676Z,13.81
2022-10-19T22:06:03.479Z,13.90
2022-10-19T22:07:35.452Z,13.64
2022-10-19T22:09:07.904Z,13.78
2022-10-19T22:10:39.590Z,13.84
2022-10-19T22:12:11.213Z,13.90
2022-10-19T22:13:44.209Z,13.77
2022-10-19T22:15:15.881Z,13.65
2022-10-19T22:16:47.566Z,13.55
2022-10-19T22:18:19.201Z,13.73